Terminal Aerodrome Forecast
Issued by NWS

Home | Current Version | Previous Version | Text Only | Print | Product List | Glossary On
Versions: 1 2 3 4 5 6 7 8 9 10 11 12 13 14 15 16 17 18 19 20
000
FTUS43 KDLH 172336
TAFHYR
TAF
KHYR 172336Z 1800/1824 16005KT P6SM SKC
     FM180400 22004KT P6SM FEW010 SCT200 WS020/29037KT
     FM180800 25003KT 6SM BR FEW010 WS020/29040KT
     FM181600 25006KT P6SM SCT200
     FM182200 25004KT P6SM BKN150=

USA.gov is the U.S. government's official web portal to all federal, state and local government web resources and services.